Time;durP1;ratioP1;P1;durP2;ratioP2;P2;SDS_P1;SDS_P2;PMS_P1;PMS_P2;Temp;Humidity;BMP_temperature;BMP_pressure;BME280_temperature;BME280_humidity;BME280_pressure;Samples;Min_cycle;Max_cycle;Signal;HPM_P1;HPM_P2
2023/05/08 00:01:57;;;;;;;13.05;8.43;;;13.90;99.90;;;;;;5096388;28;20082;-61
2023/05/08 00:04:24;;;;;;;15.90;8.07;;;13.90;99.90;;;;;;5096615;28;20424;-62
2023/05/08 00:06:51;;;;;;;15.38;8.75;;;13.90;99.90;;;;;;5096377;28;20152;-62
2023/05/08 00:09:18;;;;;;;13.82;8.05;;;13.90;99.90;;;;;;5096475;28;20146;-61
2023/05/08 00:11:45;;;;;;;13.25;7.90;;;13.80;99.90;;;;;;5096192;28;20120;-62
2023/05/08 00:14:12;;;;;;;15.02;7.88;;;13.80;99.90;;;;;;5096177;28;20048;-62
2023/05/08 00:16:39;;;;;;;15.25;7.85;;;13.80;99.90;;;;;;5096168;28;20071;-63
2023/05/08 00:19:06;;;;;;;16.27;8.20;;;13.80;99.90;;;;;;5096094;28;20399;-60
2023/05/08 00:21:32;;;;;;;15.60;8.40;;;13.80;99.90;;;;;;5095765;28;20058;-62
2023/05/08 00:23:59;;;;;;;13.68;7.95;;;13.80;99.90;;;;;;5095101;28;20040;-61
2023/05/08 00:26:26;;;;;;;20.13;8.13;;;13.80;99.90;;;;;;5100084;28;20553;-62
2023/05/08 00:28:53;;;;;;;14.02;8.00;;;13.70;99.90;;;;;;5097130;28;20039;-62
2023/05/08 00:31:20;;;;;;;15.00;8.10;;;13.70;99.90;;;;;;5115615;28;20040;-60
2023/05/08 00:33:47;;;;;;;15.18;8.40;;;13.70;99.90;;;;;;5113495;28;20048;-61
2023/05/08 00:36:14;;;;;;;16.75;8.18;;;13.60;99.90;;;;;;5096046;28;20105;-61
2023/05/08 00:38:41;;;;;;;13.75;7.95;;;13.60;99.90;;;;;;5095703;28;20032;-62
2023/05/08 00:41:08;;;;;;;11.90;7.20;;;13.60;99.90;;;;;;5094319;28;20044;-60
2023/05/08 00:43:36;;;;;;;13.18;7.43;;;13.50;99.90;;;;;;5095599;28;20032;-60
2023/05/08 00:46:03;;;;;;;14.05;8.13;;;13.50;99.90;;;;;;5095613;28;20074;-61
2023/05/08 00:48:30;;;;;;;14.25;7.97;;;13.40;99.90;;;;;;5077478;28;20097;-61
2023/05/08 00:50:57;;;;;;;17.75;8.65;;;13.40;99.90;;;;;;5095384;28;20089;-61
2023/05/08 00:53:24;;;;;;;15.73;8.25;;;13.30;99.90;;;;;;5095456;28;20040;-60
2023/05/08 00:55:51;;;;;;;13.18;7.30;;;13.30;99.90;;;;;;5095439;28;20583;-61
2023/05/08 00:58:18;;;;;;;13.15;8.05;;;13.30;99.90;;;;;;5095536;28;20119;-61
2023/05/08 01:00:48;;;;;;;10.80;7.43;;;13.30;99.90;;;;;;5077041;28;20123;-61
2023/05/08 01:03:15;;;;;;;13.43;7.70;;;13.20;99.90;;;;;;5095946;28;20036;-61
2023/05/08 01:05:42;;;;;;;12.65;7.38;;;13.20;99.90;;;;;;5077226;28;20437;-61
2023/05/08 01:08:09;;;;;;;15.15;7.78;;;13.20;99.90;;;;;;5095264;28;20036;-60
2023/05/08 01:10:36;;;;;;;12.45;7.75;;;13.10;99.90;;;;;;5077259;28;20052;-61
2023/05/08 01:13:02;;;;;;;13.80;7.80;;;13.10;99.90;;;;;;5076763;28;20415;-62
2023/05/08 01:15:29;;;;;;;13.23;7.63;;;13.10;99.90;;;;;;5095405;28;20102;-60
2023/05/08 01:17:56;;;;;;;13.68;7.35;;;13.10;99.90;;;;;;5095199;28;20036;-61
2023/05/08 01:20:23;;;;;;;12.40;7.97;;;13.10;99.90;;;;;;5094645;28;20044;-59
2023/05/08 01:22:50;;;;;;;12.98;7.40;;;13.10;99.90;;;;;;5077351;28;20479;-61
2023/05/08 01:25:17;;;;;;;13.30;7.32;;;13.10;99.90;;;;;;5076554;28;20055;-62
2023/05/08 01:27:43;;;;;;;11.35;6.78;;;13.00;99.90;;;;;;5094778;28;20044;-62
2023/05/08 01:30:10;;;;;;;13.55;7.95;;;13.00;99.90;;;;;;5094546;28;20044;-61
2023/05/08 01:32:37;;;;;;;11.82;8.27;;;13.00;99.90;;;;;;5076557;28;20044;-61
2023/05/08 01:35:04;;;;;;;10.82;7.70;;;12.90;99.90;;;;;;5075397;28;20043;-60
2023/05/08 01:37:31;;;;;;;14.05;8.60;;;12.90;99.90;;;;;;5076441;28;20399;-61
2023/05/08 01:39:58;;;;;;;12.60;7.97;;;12.90;99.90;;;;;;5094340;28;20043;-61
2023/05/08 01:42:25;;;;;;;11.98;7.88;;;12.80;99.90;;;;;;5076508;28;20040;-60
2023/05/08 01:44:52;;;;;;;13.18;8.15;;;12.80;99.90;;;;;;5076522;28;20054;-62
2023/05/08 01:47:18;;;;;;;14.70;8.27;;;12.80;99.90;;;;;;5076474;28;20043;-61
2023/05/08 01:49:45;;;;;;;12.18;7.47;;;12.80;99.90;;;;;;5076058;28;20134;-61
2023/05/08 01:52:12;;;;;;;13.35;7.43;;;12.70;99.90;;;;;;5075885;28;20485;-60
2023/05/08 01:54:39;;;;;;;10.68;6.88;;;12.70;99.90;;;;;;5094555;28;20044;-60
2023/05/08 01:57:06;;;;;;;10.40;6.93;;;12.70;99.90;;;;;;5094681;28;20044;-62
2023/05/08 01:59:33;;;;;;;12.32;6.78;;;12.70;99.90;;;;;;5076033;28;20040;-63
2023/05/08 02:02:00;;;;;;;10.82;7.18;;;12.60;99.90;;;;;;5094378;28;20043;-61
2023/05/08 02:04:26;;;;;;;10.00;6.43;;;12.60;99.90;;;;;;5076222;28;20046;-62
2023/05/08 02:06:53;;;;;;;9.32;6.15;;;12.60;99.90;;;;;;5094084;28;20032;-61
2023/05/08 02:09:21;;;;;;;11.60;6.65;;;12.60;99.90;;;;;;5094235;28;20048;-60
2023/05/08 02:11:48;;;;;;;9.88;6.78;;;12.60;99.90;;;;;;5075917;28;20036;-62
2023/05/08 02:14:16;;;;;;;14.30;7.28;;;12.50;99.90;;;;;;5093802;28;20055;-62
2023/05/08 02:16:43;;;;;;;13.70;7.68;;;12.50;99.90;;;;;;5093986;28;20044;-62
2023/05/08 02:19:10;;;;;;;11.73;7.13;;;12.50;99.90;;;;;;5093936;28;20062;-62
2023/05/08 02:21:37;;;;;;;11.73;7.50;;;12.50;99.90;;;;;;5075811;28;20093;-60
2023/05/08 02:24:04;;;;;;;13.45;6.80;;;12.40;99.90;;;;;;5092891;28;20044;-60
2023/05/08 02:26:31;;;;;;;12.05;7.47;;;12.50;99.90;;;;;;5075675;28;20475;-61
2023/05/08 02:28:57;;;;;;;9.98;6.68;;;12.40;99.90;;;;;;5075933;28;20064;-61
2023/05/08 02:31:24;;;;;;;10.38;6.85;;;12.40;99.90;;;;;;5075822;28;20135;-62
2023/05/08 02:33:51;;;;;;;11.32;6.75;;;12.40;99.90;;;;;;5075629;28;20464;-62
2023/05/08 02:36:18;;;;;;;10.70;6.60;;;12.30;99.90;;;;;;5092491;28;20058;-62
2023/05/08 02:38:46;;;;;;;15.32;6.82;;;12.30;99.90;;;;;;5094059;28;20074;-61
2023/05/08 02:41:13;;;;;;;13.40;6.40;;;12.30;99.90;;;;;;5075578;28;20040;-60
2023/05/08 02:43:40;;;;;;;12.35;6.72;;;12.30;99.90;;;;;;5059298;28;20386;-60
2023/05/08 02:46:07;;;;;;;12.63;7.05;;;12.20;99.90;;;;;;5093680;28;20110;-61
2023/05/08 02:48:35;;;;;;;13.77;6.53;;;12.20;99.90;;;;;;5075615;28;20044;-62
2023/05/08 02:51:01;;;;;;;13.13;6.70;;;12.20;99.90;;;;;;5093746;28;20341;-61
2023/05/08 02:53:28;;;;;;;12.55;6.60;;;12.20;99.90;;;;;;5093602;28;20070;-61
2023/05/08 02:55:56;;;;;;;11.93;6.35;;;12.10;99.90;;;;;;5075334;28;20093;-61
2023/05/08 02:58:23;;;;;;;11.38;6.50;;;12.10;99.90;;;;;;5075243;28;20483;-61
2023/05/08 03:00:50;;;;;;;12.98;7.05;;;12.10;99.90;;;;;;5075303;28;20044;-61
2023/05/08 03:03:17;;;;;;;11.07;6.38;;;12.00;99.90;;;;;;5094195;28;20089;-60
2023/05/08 03:05:44;;;;;;;10.85;6.93;;;12.00;99.90;;;;;;5087344;28;20067;-62
2023/05/08 03:08:10;;;;;;;10.93;6.97;;;12.00;99.90;;;;;;5098829;28;20050;-60
2023/05/08 03:10:37;;;;;;;10.85;6.55;;;12.00;99.90;;;;;;5098666;28;20054;-59
2023/05/08 03:13:04;;;;;;;8.23;6.38;;;11.90;99.90;;;;;;5116825;28;20058;-60
2023/05/08 03:15:31;;;;;;;12.65;6.20;;;11.90;99.90;;;;;;5098979;28;20044;-61
2023/05/08 03:17:58;;;;;;;9.98;6.53;;;11.90;99.90;;;;;;5098859;28;20076;-60
2023/05/08 03:20:25;;;;;;;9.40;5.85;;;11.90;99.90;;;;;;5116813;28;20055;-62
2023/05/08 03:22:52;;;;;;;12.10;6.57;;;11.90;99.90;;;;;;5098643;28;20122;-60
2023/05/08 03:25:19;;;;;;;13.48;6.45;;;11.80;99.90;;;;;;5116913;28;20066;-61
2023/05/08 03:27:46;;;;;;;11.18;6.25;;;11.80;99.90;;;;;;5098233;28;20498;-60
2023/05/08 03:30:12;;;;;;;9.25;6.07;;;11.70;99.90;;;;;;5098376;28;20036;-62
2023/05/08 03:32:42;;;;;;;9.95;6.40;;;11.70;99.90;;;;;;5098592;28;20105;-60
2023/05/08 03:35:09;;;;;;;9.75;6.10;;;11.70;99.90;;;;;;5113438;28;20032;-61
2023/05/08 03:37:36;;;;;;;10.50;6.45;;;11.70;99.90;;;;;;5077849;28;20051;-60
2023/05/08 03:40:03;;;;;;;9.80;6.05;;;11.70;99.90;;;;;;5078489;28;20131;-61
2023/05/08 03:42:29;;;;;;;9.30;6.03;;;11.60;99.90;;;;;;5062333;28;20135;-61
2023/05/08 03:44:57;;;;;;;8.20;5.95;;;11.60;99.90;;;;;;5078690;28;20566;-60
2023/05/08 03:47:27;;;;;;;11.95;5.15;;;11.60;99.90;;;;;;5078716;28;20120;-60
2023/05/08 03:49:55;;;;;;;7.50;5.68;;;11.60;99.90;;;;;;5078911;28;20143;-59
2023/05/08 03:52:23;;;;;;;8.88;5.47;;;11.60;99.90;;;;;;5078615;28;20044;-61
2023/05/08 03:54:51;;;;;;;8.32;5.07;;;11.60;99.90;;;;;;5078514;28;20052;-59
2023/05/08 03:57:18;;;;;;;9.50;5.50;;;11.60;99.90;;;;;;5078569;28;20082;-61
2023/05/08 03:59:45;;;;;;;8.85;5.78;;;11.50;99.90;;;;;;5096575;28;20036;-61
2023/05/08 04:02:12;;;;;;;12.98;6.43;;;11.50;99.90;;;;;;5078426;28;20036;-59
2023/05/08 04:04:39;;;;;;;12.73;5.82;;;11.50;99.90;;;;;;5078262;28;20048;-61
2023/05/08 04:07:09;;;;;;;8.80;6.10;;;11.50;99.90;;;;;;5078236;28;20148;-60
2023/05/08 04:09:44;;;;;;;8.40;6.00;;;11.40;99.90;;;;;;5096431;28;20044;-61
2023/05/08 04:12:11;;;;;;;10.32;6.55;;;11.40;99.90;;;;;;5078215;28;20174;-62
2023/05/08 04:14:38;;;;;;;9.73;5.82;;;11.40;99.90;;;;;;5077835;28;20421;-61
2023/05/08 04:17:06;;;;;;;11.77;5.90;;;11.40;99.90;;;;;;5077935;28;20529;-62
2023/05/08 04:19:32;;;;;;;9.82;6.00;;;11.40;99.90;;;;;;5077971;28;20032;-61
2023/05/08 04:21:59;;;;;;;8.88;6.25;;;11.40;99.90;;;;;;5077809;28;20043;-62
2023/05/08 04:24:27;;;;;;;9.73;6.45;;;11.40;99.90;;;;;;5077906;28;20055;-61
2023/05/08 04:26:54;;;;;;;9.35;5.55;;;11.40;99.90;;;;;;5096144;28;20111;-61
2023/05/08 04:29:21;;;;;;;12.18;5.45;;;11.40;99.90;;;;;;5077815;28;20438;-62
2023/05/08 04:31:49;;;;;;;10.18;5.95;;;11.50;99.90;;;;;;5077893;28;20372;-61
2023/05/08 04:34:16;;;;;;;10.93;5.97;;;11.50;99.90;;;;;;5077855;28;20044;-61
2023/05/08 04:36:44;;;;;;;10.07;6.07;;;11.50;99.90;;;;;;5076925;28;20537;-61
2023/05/08 04:39:10;;;;;;;9.98;5.10;;;11.50;99.90;;;;;;5095957;28;20047;-62
2023/05/08 04:41:37;;;;;;;11.25;6.25;;;11.50;99.90;;;;;;5095897;28;20435;-61
2023/05/08 04:44:05;;;;;;;7.18;5.15;;;11.60;99.90;;;;;;5077814;28;20063;-62
2023/05/08 04:46:31;;;;;;;8.68;5.50;;;11.60;99.90;;;;;;5077639;28;20131;-62
2023/05/08 04:48:58;;;;;;;10.90;5.50;;;11.70;99.90;;;;;;5077670;28;20060;-61
2023/05/08 04:51:28;;;;;;;11.57;5.40;;;11.70;99.90;;;;;;5095645;28;20040;-61
2023/05/08 04:53:55;;;;;;;10.70;5.07;;;11.80;99.90;;;;;;5077622;28;20131;-62
2023/05/08 04:56:22;;;;;;;8.23;5.13;;;12.00;99.90;;;;;;5095868;28;20064;-61
2023/05/08 04:58:49;;;;;;;6.63;4.60;;;12.10;99.90;;;;;;5095697;28;20051;-61
2023/05/08 05:01:17;;;;;;;9.45;5.20;;;12.10;99.90;;;;;;5059689;28;20048;-62
2023/05/08 05:03:44;;;;;;;11.23;5.18;;;12.10;99.90;;;;;;5077145;28;20437;-62
2023/05/08 05:06:11;;;;;;;9.65;4.70;;;12.20;99.90;;;;;;5077166;28;20082;-60
2023/05/08 05:08:38;;;;;;;7.75;4.80;;;12.20;99.90;;;;;;5077097;28;20039;-61
2023/05/08 05:11:05;;;;;;;10.55;4.80;;;12.20;99.90;;;;;;5077094;28;20537;-60
2023/05/08 05:13:32;;;;;;;9.07;5.07;;;12.20;99.90;;;;;;5077085;28;20109;-61
2023/05/08 05:15:59;;;;;;;9.27;5.28;;;12.30;99.90;;;;;;5076748;28;20453;-61
2023/05/08 05:18:26;;;;;;;7.07;4.53;;;12.30;99.90;;;;;;5077224;28;20074;-61
2023/05/08 05:20:53;;;;;;;10.63;4.38;;;12.50;99.90;;;;;;5076521;28;20044;-60
2023/05/08 05:23:20;;;;;;;7.38;4.32;;;12.60;99.90;;;;;;5093712;28;20044;-60
2023/05/08 05:25:47;;;;;;;8.27;4.40;;;12.70;99.90;;;;;;5076076;28;20044;-61
2023/05/08 05:28:14;;;;;;;7.35;4.55;;;12.70;99.90;;;;;;5076638;28;20042;-59
2023/05/08 05:30:41;;;;;;;8.23;4.43;;;12.80;99.90;;;;;;5076631;28;20043;-65
2023/05/08 05:33:08;;;;;;;8.98;3.45;;;12.90;99.90;;;;;;5076644;28;20493;-60
2023/05/08 05:35:35;;;;;;;7.82;3.22;;;12.90;99.90;;;;;;5076693;28;20052;-61
2023/05/08 05:38:02;;;;;;;6.03;3.20;;;13.00;99.90;;;;;;5075757;28;20391;-60
2023/05/08 05:40:29;;;;;;;6.20;2.88;;;13.10;99.90;;;;;;5076303;28;20040;-61
2023/05/08 05:42:56;;;;;;;8.98;3.50;;;13.10;99.90;;;;;;5076938;28;20094;-61
2023/05/08 05:45:23;;;;;;;8.68;3.40;;;13.10;99.90;;;;;;5076463;28;20055;-60
2023/05/08 05:47:52;;;;;;;5.75;2.95;;;13.20;99.90;;;;;;5094943;28;20047;-61
2023/05/08 05:50:22;;;;;;;7.55;3.90;;;13.20;99.90;;;;;;5076684;28;20109;-60
2023/05/08 05:52:49;;;;;;;7.68;3.70;;;13.20;99.90;;;;;;5076515;28;20071;-61
2023/05/08 05:55:16;;;;;;;9.75;3.97;;;13.20;99.90;;;;;;5076623;28;20466;-61
2023/05/08 05:57:45;;;;;;;10.05;4.57;;;13.20;99.90;;;;;;5076017;28;20036;-60
2023/05/08 06:00:12;;;;;;;8.55;4.25;;;13.20;99.90;;;;;;5075943;28;20040;-61
2023/05/08 06:02:45;;;;;;;10.10;4.65;;;13.20;99.90;;;;;;5076536;28;20036;-61
2023/05/08 06:05:14;;;;;;;11.35;4.15;;;13.30;99.90;;;;;;5076382;28;20074;-60
2023/05/08 06:07:41;;;;;;;9.75;4.75;;;13.30;99.90;;;;;;5094248;28;20075;-61
2023/05/08 06:10:08;;;;;;;8.43;4.80;;;13.40;99.90;;;;;;5093984;28;20040;-61
2023/05/08 06:12:35;;;;;;;9.55;4.93;;;13.40;99.90;;;;;;5076002;28;20036;-61
2023/05/08 06:15:03;;;;;;;8.38;4.47;;;13.40;99.90;;;;;;5075905;28;20383;-61
2023/05/08 06:17:31;;;;;;;7.45;4.93;;;13.50;99.90;;;;;;5059606;28;20047;-62
2023/05/08 06:19:58;;;;;;;9.50;5.00;;;13.50;99.90;;;;;;5076079;28;20040;-61
2023/05/08 06:22:24;;;;;;;8.93;4.65;;;13.60;99.90;;;;;;5092825;28;20086;-61
2023/05/08 06:24:56;;;;;;;6.38;3.95;;;13.70;99.90;;;;;;5094288;28;20105;-61
2023/05/08 06:27:22;;;;;;;8.63;4.90;;;13.70;99.90;;;;;;5093806;28;20044;-62
2023/05/08 06:29:52;;;;;;;9.82;4.88;;;13.80;99.90;;;;;;5093923;28;20082;-61
2023/05/08 06:32:19;;;;;;;7.93;4.65;;;13.90;99.90;;;;;;5093673;28;20032;-61
2023/05/08 06:34:46;;;;;;;8.07;4.88;;;14.00;99.90;;;;;;5093914;28;20044;-61
2023/05/08 06:37:13;;;;;;;8.30;5.40;;;14.00;99.90;;;;;;5101158;28;20065;-60
2023/05/08 06:39:40;;;;;;;8.45;5.07;;;14.10;99.90;;;;;;5113070;28;20070;-62
2023/05/08 06:42:07;;;;;;;7.22;4.95;;;14.20;99.90;;;;;;5113026;28;20051;-61
2023/05/08 06:44:37;;;;;;;7.55;4.95;;;14.20;99.90;;;;;;5095047;28;20075;-61
2023/05/08 06:47:04;;;;;;;8.35;5.63;;;14.30;99.90;;;;;;5113586;28;20134;-62
2023/05/08 06:49:31;;;;;;;9.77;5.00;;;14.40;99.90;;;;;;5095016;28;20043;-60
2023/05/08 06:51:58;;;;;;;7.88;5.10;;;14.40;99.90;;;;;;5097572;28;20051;-61
2023/05/08 06:54:24;;;;;;;7.90;4.90;;;14.50;99.90;;;;;;5093696;28;20552;-61
2023/05/08 06:56:51;;;;;;;7.45;4.80;;;14.50;99.90;;;;;;5093433;28;20052;-62
2023/05/08 06:59:18;;;;;;;9.80;4.93;;;14.70;99.90;;;;;;5093800;28;20394;-62
2023/05/08 07:01:45;;;;;;;6.93;4.75;;;14.70;99.90;;;;;;5093318;28;20054;-61
2023/05/08 07:04:12;;;;;;;6.13;4.25;;;14.80;99.90;;;;;;5093504;28;20055;-60
2023/05/08 07:06:39;;;;;;;7.97;4.28;;;14.90;99.90;;;;;;5093354;28;20044;-60
2023/05/08 07:09:06;;;;;;;7.90;4.68;;;14.90;99.90;;;;;;5093379;28;20036;-61
2023/05/08 07:11:33;;;;;;;6.18;4.70;;;15.00;99.90;;;;;;5093446;28;20040;-62
2023/05/08 07:13:59;;;;;;;8.35;5.35;;;15.10;99.90;;;;;;5093386;28;20056;-62
2023/05/08 07:16:26;;;;;;;8.18;5.40;;;15.10;99.90;;;;;;5093262;28;20044;-61
2023/05/08 07:18:53;;;;;;;6.50;4.55;;;15.20;99.90;;;;;;5093577;28;20115;-63
2023/05/08 07:21:20;;;;;;;6.05;4.53;;;15.20;99.90;;;;;;5093110;28;20043;-61
2023/05/08 07:23:50;;;;;;;7.82;5.00;;;15.20;99.90;;;;;;5093202;28;20479;-62
2023/05/08 07:26:17;;;;;;;7.53;5.10;;;15.20;99.90;;;;;;5093530;28;20036;-60
2023/05/08 07:28:44;;;;;;;7.38;5.28;;;15.20;99.90;;;;;;5093191;28;20040;-62
2023/05/08 07:31:11;;;;;;;9.07;5.55;;;15.20;99.90;;;;;;5093491;28;20101;-59
2023/05/08 07:33:38;;;;;;;6.22;4.82;;;15.30;99.90;;;;;;5093503;28;20487;-60
2023/05/08 07:36:04;;;;;;;6.88;4.35;;;15.30;99.90;;;;;;5092163;28;20097;-61
2023/05/08 07:38:31;;;;;;;7.32;4.53;;;15.30;99.90;;;;;;5092807;28;20094;-59
2023/05/08 07:41:00;;;;;;;6.22;4.35;;;15.30;99.90;;;;;;5093222;28;20097;-61
2023/05/08 07:43:27;;;;;;;7.05;4.13;;;15.30;99.90;;;;;;5094851;28;20043;-60
2023/05/08 07:45:54;;;;;;;5.25;3.92;;;15.40;99.90;;;;;;5112735;28;20126;-60
2023/05/08 07:48:21;;;;;;;6.30;4.30;;;15.40;99.90;;;;;;5112335;28;20074;-61
2023/05/08 07:50:47;;;;;;;6.82;4.38;;;15.40;99.90;;;;;;5115444;28;20108;-60
2023/05/08 07:53:14;;;;;;;5.47;3.97;;;15.40;99.90;;;;;;5116326;28;20051;-59
2023/05/08 07:55:41;;;;;;;5.85;4.05;;;15.50;99.90;;;;;;5116327;28;20046;-59
2023/05/08 07:58:08;;;;;;;4.93;3.60;;;15.60;99.90;;;;;;5116261;28;20482;-60
2023/05/08 08:00:35;;;;;;;5.82;3.70;;;15.70;99.90;;;;;;5115826;28;20055;-60
2023/05/08 08:03:02;;;;;;;6.60;3.60;;;15.60;99.90;;;;;;5115944;28;20042;-59
2023/05/08 08:05:29;;;;;;;6.97;4.03;;;15.70;99.90;;;;;;5115881;28;20047;-59
2023/05/08 08:07:56;;;;;;;5.85;3.67;;;15.70;99.90;;;;;;5082231;28;20036;-60
2023/05/08 08:10:22;;;;;;;5.75;3.80;;;15.70;99.90;;;;;;5078524;28;20055;-61
2023/05/08 08:12:49;;;;;;;6.18;4.03;;;15.80;99.90;;;;;;5096285;28;20040;-61
2023/05/08 08:15:16;;;;;;;8.18;4.00;;;15.80;99.90;;;;;;5095959;28;20075;-60
2023/05/08 08:17:43;;;;;;;6.10;4.10;;;15.80;99.90;;;;;;5096214;28;20051;-60
2023/05/08 08:20:10;;;;;;;6.55;4.07;;;15.80;99.90;;;;;;5096386;28;20036;-61
2023/05/08 08:22:37;;;;;;;7.47;4.47;;;15.80;99.90;;;;;;5096116;28;20118;-60
2023/05/08 08:25:04;;;;;;;8.05;4.30;;;15.80;99.90;;;;;;5096121;28;20047;-59
2023/05/08 08:27:31;;;;;;;6.32;3.80;;;15.80;99.90;;;;;;5096311;28;20450;-58
2023/05/08 08:29:58;;;;;;;7.00;3.83;;;15.80;99.90;;;;;;5077841;28;20490;-61
2023/05/08 08:32:41;;;;;;;5.57;3.28;;;15.80;99.90;;;;;;5096054;28;20051;-59
2023/05/08 08:35:08;;;;;;;7.43;4.55;;;15.80;99.90;;;;;;5096230;28;20426;-59
2023/05/08 08:37:35;;;;;;;5.85;3.90;;;15.70;99.90;;;;;;5098816;28;20093;-61
2023/05/08 08:40:02;;;;;;;10.32;4.95;;;15.70;99.90;;;;;;5077848;28;20060;-61
2023/05/08 08:42:29;;;;;;;7.53;4.20;;;15.80;99.90;;;;;;5095575;28;20495;-61
2023/05/08 08:44:56;;;;;;;7.00;4.22;;;15.90;99.90;;;;;;5095748;28;20067;-61
2023/05/08 08:47:23;;;;;;;5.50;4.15;;;15.90;99.90;;;;;;5061188;28;20048;-61
2023/05/08 08:49:52;;;;;;;7.45;4.28;;;16.00;99.90;;;;;;5078198;28;20171;-60
2023/05/08 08:52:19;;;;;;;6.22;4.10;;;16.10;99.90;;;;;;5094241;28;20043;-60
2023/05/08 08:54:46;;;;;;;9.32;3.97;;;16.20;99.90;;;;;;5095524;28;20040;-60
2023/05/08 08:57:13;;;;;;;6.38;3.72;;;16.30;99.90;;;;;;5077479;28;20047;-61
2023/05/08 08:59:40;;;;;;;7.05;3.60;;;16.30;99.90;;;;;;5095437;28;20039;-62
2023/05/08 09:02:06;;;;;;;5.28;3.22;;;16.40;99.90;;;;;;5075229;28;20487;-60
2023/05/08 09:04:33;;;;;;;6.97;3.65;;;16.50;99.90;;;;;;5095331;28;20040;-61
2023/05/08 09:07:04;;;;;;;8.38;3.17;;;16.50;99.90;;;;;;5095879;28;20048;-61
2023/05/08 09:09:32;;;;;;;6.55;3.08;;;16.60;99.90;;;;;;5095211;28;20154;-61
2023/05/08 09:11:59;;;;;;;6.22;3.10;;;16.70;99.90;;;;;;5095411;28;20044;-61
2023/05/08 09:14:26;;;;;;;6.28;2.92;;;16.70;99.90;;;;;;5094994;28;20086;-62
2023/05/08 09:16:53;;;;;;;5.80;2.60;;;16.90;99.90;;;;;;5095305;28;20086;-62
2023/05/08 09:19:20;;;;;;;5.68;3.03;;;17.00;99.90;;;;;;5094980;28;20050;-61
2023/05/08 09:21:51;;;;;;;5.22;2.50;;;17.10;99.90;;;;;;5095086;28;20082;-61
2023/05/08 09:24:19;;;;;;;6.97;2.28;;;17.10;99.90;;;;;;5094960;28;20123;-61
2023/05/08 09:26:46;;;;;;;5.85;2.22;;;17.20;99.90;;;;;;5094873;28;20035;-61
2023/05/08 09:29:13;;;;;;;6.22;2.17;;;17.10;99.90;;;;;;5094918;28;20046;-62
2023/05/08 09:31:39;;;;;;;4.85;1.92;;;17.00;99.90;;;;;;5076487;28;20052;-62
2023/05/08 09:34:06;;;;;;;4.70;1.80;;;17.10;99.90;;;;;;5094750;28;20040;-62
2023/05/08 09:36:33;;;;;;;5.20;1.70;;;17.10;99.90;;;;;;5094669;28;20127;-62
2023/05/08 09:39:00;;;;;;;6.50;1.90;;;17.10;99.90;;;;;;5094886;28;20055;-62
2023/05/08 09:41:27;;;;;;;6.28;2.15;;;17.20;99.90;;;;;;5094459;28;20044;-62
2023/05/08 09:43:54;;;;;;;6.65;2.10;;;17.20;99.90;;;;;;5076608;28;20469;-60
2023/05/08 09:46:21;;;;;;;6.65;1.70;;;17.30;99.90;;;;;;5094797;28;20040;-63
2023/05/08 09:48:48;;;;;;;6.85;1.90;;;17.30;99.90;;;;;;5076807;28;20375;-61
2023/05/08 09:51:14;;;;;;;5.70;1.67;;;17.30;99.90;;;;;;5094496;28;20040;-62
2023/05/08 09:53:41;;;;;;;7.72;2.00;;;17.20;99.90;;;;;;5076791;28;20051;-62
2023/05/08 09:56:08;;;;;;;5.50;1.80;;;17.20;99.90;;;;;;5094692;28;20036;-62
2023/05/08 09:58:35;;;;;;;5.85;1.75;;;17.20;99.90;;;;;;5094704;28;20376;-61
2023/05/08 10:01:02;;;;;;;5.82;1.90;;;17.30;99.90;;;;;;5094254;28;20090;-62
2023/05/08 10:03:28;;;;;;;7.90;1.95;;;17.40;99.90;;;;;;5094482;28;20131;-61
2023/05/08 10:05:55;;;;;;;5.93;1.60;;;17.40;99.90;;;;;;5094386;28;20044;-62
2023/05/08 10:08:22;;;;;;;4.55;1.50;;;17.40;99.90;;;;;;5094454;28;20172;-61
2023/05/08 10:10:49;;;;;;;4.95;1.70;;;17.30;99.90;;;;;;5094094;28;20043;-62
2023/05/08 10:13:15;;;;;;;6.18;1.73;;;17.30;99.90;;;;;;5093767;28;20066;-62
2023/05/08 10:15:42;;;;;;;6.38;1.80;;;17.30;99.90;;;;;;5094421;28;20118;-61
2023/05/08 10:18:10;;;;;;;5.85;2.00;;;17.40;99.90;;;;;;5094170;28;20089;-62
2023/05/08 10:20:37;;;;;;;7.50;2.13;;;17.50;99.90;;;;;;5093932;28;20078;-62
2023/05/08 10:23:04;;;;;;;7.25;1.83;;;17.60;99.90;;;;;;5093808;28;20147;-61
2023/05/08 10:25:31;;;;;;;8.00;1.65;;;17.60;99.90;;;;;;5094109;28;20101;-61
2023/05/08 10:27:58;;;;;;;7.22;1.90;;;17.60;99.90;;;;;;5093888;28;20067;-61
2023/05/08 10:30:24;;;;;;;4.93;1.70;;;17.60;99.90;;;;;;5107140;28;20036;-61
2023/05/08 10:32:54;;;;;;;9.95;2.08;;;17.70;99.90;;;;;;5093725;28;20067;-62
2023/05/08 10:35:22;;;;;;;7.15;2.00;;;17.60;99.90;;;;;;5093442;28;20483;-63
2023/05/08 10:37:49;;;;;;;5.40;2.13;;;17.70;99.90;;;;;;5100996;28;20043;-60
2023/05/08 10:40:15;;;;;;;5.38;1.80;;;17.60;99.90;;;;;;5111780;28;20078;-61
2023/05/08 10:42:42;;;;;;;5.53;1.80;;;17.70;99.90;;;;;;5113318;28;20066;-61
2023/05/08 10:45:09;;;;;;;7.28;2.15;;;17.70;99.90;;;;;;5113096;28;20109;-61
2023/05/08 10:47:36;;;;;;;7.40;1.77;;;17.80;99.90;;;;;;5111608;28;20486;-60
2023/05/08 10:50:03;;;;;;;6.28;1.77;;;17.80;99.90;;;;;;5112997;28;20079;-61
2023/05/08 10:52:30;;;;;;;7.57;1.73;;;17.90;99.90;;;;;;5094513;28;20066;-61
2023/05/08 10:54:57;;;;;;;5.22;1.65;;;18.00;99.90;;;;;;5112885;28;20371;-60
2023/05/08 10:57:24;;;;;;;4.70;1.63;;;18.10;99.90;;;;;;5113052;28;20048;-61
2023/05/08 10:59:51;;;;;;;8.00;2.08;;;18.30;99.90;;;;;;5094614;28;20039;-62
2023/05/08 11:02:18;;;;;;;3.15;1.30;;;18.40;99.90;;;;;;5113116;28;20127;-62
2023/05/08 11:04:45;;;;;;;8.50;3.65;;;18.40;99.90;;;;;;5113061;28;20426;-62
2023/05/08 11:07:11;;;;;;;6.43;1.90;;;18.50;99.90;;;;;;5087762;28;20127;-62
2023/05/08 11:09:38;;;;;;;4.97;1.60;;;18.50;99.90;;;;;;5093360;28;20051;-62
2023/05/08 11:12:05;;;;;;;6.85;1.70;;;18.50;99.90;;;;;;5093544;28;20131;-63
2023/05/08 11:14:32;;;;;;;7.30;1.58;;;18.50;99.90;;;;;;5093294;28;20114;-61
2023/05/08 11:16:59;;;;;;;4.22;1.48;;;18.60;99.90;;;;;;5093255;28;20571;-62
2023/05/08 11:19:26;;;;;;;6.38;1.50;;;18.70;99.90;;;;;;5093352;28;20040;-62
2023/05/08 11:21:53;;;;;;;6.32;1.85;;;18.80;99.90;;;;;;5093294;28;20037;-62
2023/05/08 11:24:21;;;;;;;7.32;1.50;;;18.80;99.90;;;;;;5093885;28;20052;-62
2023/05/08 11:26:47;;;;;;;5.22;1.30;;;18.70;99.90;;;;;;5097331;28;20032;-62
2023/05/08 11:29:14;;;;;;;5.28;1.50;;;18.70;99.90;;;;;;5096794;28;20127;-61
2023/05/08 11:31:41;;;;;;;5.32;1.60;;;18.60;99.90;;;;;;5097154;28;20032;-61
2023/05/08 11:34:08;;;;;;;4.13;1.42;;;18.50;99.90;;;;;;5096951;28;20068;-61
2023/05/08 11:36:35;;;;;;;5.47;1.45;;;18.40;99.90;;;;;;5079140;28;20071;-61
2023/05/08 11:39:01;;;;;;;6.97;1.30;;;18.40;99.90;;;;;;5078937;28;20482;-61
2023/05/08 11:41:28;;;;;;;17.38;2.00;;;18.30;99.90;;;;;;5096685;28;20111;-62
2023/05/08 11:43:55;;;;;;;3.25;1.30;;;18.50;99.90;;;;;;5095606;28;20046;-61
2023/05/08 11:46:22;;;;;;;5.03;1.40;;;18.50;99.90;;;;;;5096635;28;20068;-62
2023/05/08 11:48:48;;;;;;;6.13;1.60;;;18.60;99.90;;;;;;5090264;28;20206;-61
2023/05/08 11:51:15;;;;;;;3.85;1.48;;;18.60;99.90;;;;;;5090011;28;20089;-63
2023/05/08 11:53:42;;;;;;;5.00;1.35;;;18.50;99.90;;;;;;5090071;28;20042;-62
2023/05/08 11:56:09;;;;;;;4.32;1.30;;;18.40;99.90;;;;;;5098030;28;20088;-61
2023/05/08 11:58:35;;;;;;;4.30;1.38;;;18.20;99.90;;;;;;5116121;28;20051;-61
2023/05/08 12:01:02;;;;;;;5.30;1.25;;;18.10;99.90;;;;;;5115888;28;20131;-62
2023/05/08 12:03:29;;;;;;;3.40;1.52;;;17.90;99.90;;;;;;5116227;28;20088;-62
2023/05/08 12:05:56;;;;;;;3.80;1.42;;;17.80;99.90;;;;;;5116191;28;20118;-62
2023/05/08 12:08:23;;;;;;;6.45;1.58;;;17.70;99.90;;;;;;5115901;28;20040;-60
2023/05/08 12:10:53;;;;;;;4.63;1.80;;;17.70;99.90;;;;;;5115446;28;20074;-60
2023/05/08 12:13:20;;;;;;;4.47;1.60;;;17.70;99.90;;;;;;5113652;28;20463;-61
2023/05/08 12:15:47;;;;;;;3.72;1.10;;;17.60;99.90;;;;;;5096038;28;20043;-61
2023/05/08 12:18:13;;;;;;;4.95;1.30;;;17.50;99.90;;;;;;5077562;28;20043;-62
2023/05/08 12:20:40;;;;;;;5.80;1.35;;;17.40;99.90;;;;;;5096378;28;20051;-63
2023/05/08 12:23:08;;;;;;;4.25;1.40;;;17.40;99.90;;;;;;5094788;28;20416;-63
2023/05/08 12:25:35;;;;;;;4.32;1.40;;;17.50;99.90;;;;;;5095991;28;20093;-60
2023/05/08 12:28:02;;;;;;;4.72;1.52;;;17.70;99.90;;;;;;5094974;28;20450;-61
2023/05/08 12:30:29;;;;;;;3.95;1.25;;;17.80;99.90;;;;;;5077882;28;20036;-60
2023/05/08 12:32:55;;;;;;;3.95;1.15;;;17.90;99.90;;;;;;5094529;28;20407;-61
2023/05/08 12:35:23;;;;;;;5.75;1.40;;;18.00;99.90;;;;;;5095670;28;20040;-61
2023/05/08 12:37:49;;;;;;;3.90;1.40;;;18.00;99.90;;;;;;5094705;28;20141;-60
2023/05/08 12:40:16;;;;;;;3.58;1.20;;;18.00;99.90;;;;;;5095494;28;20033;-62
2023/05/08 12:42:43;;;;;;;2.85;1.10;;;18.00;99.90;;;;;;5077534;28;20414;-61